sensor_id;sensor_type;location;lat;lon;timestamp;temperature;humidity
21495;DHT22;10909;53.590;10.054;2023-01-28T00:01:16;6.50;69.10
21495;DHT22;10909;53.590;10.054;2023-01-28T00:03:42;6.50;69.20
21495;DHT22;10909;53.590;10.054;2023-01-28T00:06:14;6.50;68.80
21495;DHT22;10909;53.590;10.054;2023-01-28T00:08:40;6.50;68.20
21495;DHT22;10909;53.590;10.054;2023-01-28T00:11:08;6.40;68.10
21495;DHT22;10909;53.590;10.054;2023-01-28T00:13:35;6.40;68.20
21495;DHT22;10909;53.590;10.054;2023-01-28T00:16:03;6.40;68.60
21495;DHT22;10909;53.590;10.054;2023-01-28T00:18:30;6.40;68.70
21495;DHT22;10909;53.590;10.054;2023-01-28T00:21:03;6.40;68.80
21495;DHT22;10909;53.590;10.054;2023-01-28T00:23:31;6.40;68.70
21495;DHT22;10909;53.590;10.054;2023-01-28T00:26:02;6.40;68.90
21495;DHT22;10909;53.590;10.054;2023-01-28T00:28:31;6.40;68.90
21495;DHT22;10909;53.590;10.054;2023-01-28T00:30:56;6.40;68.90
21495;DHT22;10909;53.590;10.054;2023-01-28T00:33:22;6.40;68.80
21495;DHT22;10909;53.590;10.054;2023-01-28T00:35:58;6.40;68.60
21495;DHT22;10909;53.590;10.054;2023-01-28T00:38:24;6.40;68.30
21495;DHT22;10909;53.590;10.054;2023-01-28T00:40:50;6.40;68.50
21495;DHT22;10909;53.590;10.054;2023-01-28T00:43:16;6.30;68.30
21495;DHT22;10909;53.590;10.054;2023-01-28T00:45:41;6.30;68.10
21495;DHT22;10909;53.590;10.054;2023-01-28T00:48:07;6.30;68.30
21495;DHT22;10909;53.590;10.054;2023-01-28T00:50:33;6.30;68.40
21495;DHT22;10909;53.590;10.054;2023-01-28T00:52:59;6.30;68.50
21495;DHT22;10909;53.590;10.054;2023-01-28T00:55:24;6.30;68.80
21495;DHT22;10909;53.590;10.054;2023-01-28T00:57:54;6.30;68.80
21495;DHT22;10909;53.590;10.054;2023-01-28T01:00:28;6.30;68.80
21495;DHT22;10909;53.590;10.054;2023-01-28T01:02:57;6.30;68.80
21495;DHT22;10909;53.590;10.054;2023-01-28T01:05:32;6.30;68.60
21495;DHT22;10909;53.590;10.054;2023-01-28T01:08:03;6.30;68.40
21495;DHT22;10909;53.590;10.054;2023-01-28T01:10:32;6.30;68.50
21495;DHT22;10909;53.590;10.054;2023-01-28T01:13:01;6.40;68.50
21495;DHT22;10909;53.590;10.054;2023-01-28T01:15:30;6.30;68.40
21495;DHT22;10909;53.590;10.054;2023-01-28T01:17:56;6.30;68.20
21495;DHT22;10909;53.590;10.054;2023-01-28T01:20:25;6.30;68.20
21495;DHT22;10909;53.590;10.054;2023-01-28T01:22:51;6.30;68.40
21495;DHT22;10909;53.590;10.054;2023-01-28T01:25:17;6.30;68.50
21495;DHT22;10909;53.590;10.054;2023-01-28T01:27:44;6.30;68.40
21495;DHT22;10909;53.590;10.054;2023-01-28T01:30:12;6.30;68.60
21495;DHT22;10909;53.590;10.054;2023-01-28T01:32:38;6.30;68.60
21495;DHT22;10909;53.590;10.054;2023-01-28T01:35:05;6.30;68.80
21495;DHT22;10909;53.590;10.054;2023-01-28T01:37:31;6.30;68.80
21495;DHT22;10909;53.590;10.054;2023-01-28T01:39:57;6.30;68.80
21495;DHT22;10909;53.590;10.054;2023-01-28T01:42:24;6.30;68.90
21495;DHT22;10909;53.590;10.054;2023-01-28T01:50:04;6.30;68.30
21495;DHT22;10909;53.590;10.054;2023-01-28T01:52:34;6.30;68.20
21495;DHT22;10909;53.590;10.054;2023-01-28T01:55:06;6.30;68.10
21495;DHT22;10909;53.590;10.054;2023-01-28T01:57:35;6.30;67.90
21495;DHT22;10909;53.590;10.054;2023-01-28T02:00:05;6.30;68.00
21495;DHT22;10909;53.590;10.054;2023-01-28T02:02:35;6.30;68.20
21495;DHT22;10909;53.590;10.054;2023-01-28T02:05:07;6.20;68.10
21495;DHT22;10909;53.590;10.054;2023-01-28T02:07:33;6.20;67.90
21495;DHT22;10909;53.590;10.054;2023-01-28T02:09:59;6.30;68.00
21495;DHT22;10909;53.590;10.054;2023-01-28T02:12:31;6.30;68.10
21495;DHT22;10909;53.590;10.054;2023-01-28T02:15:24;6.30;68.00
21495;DHT22;10909;53.590;10.054;2023-01-28T02:17:50;6.30;68.20
21495;DHT22;10909;53.590;10.054;2023-01-28T02:20:22;6.30;68.00
21495;DHT22;10909;53.590;10.054;2023-01-28T02:23:05;6.30;68.10
21495;DHT22;10909;53.590;10.054;2023-01-28T02:26:13;6.20;67.80
21495;DHT22;10909;53.590;10.054;2023-01-28T02:34:49;6.10;67.40
21495;DHT22;10909;53.590;10.054;2023-01-28T02:37:26;6.20;67.40
21495;DHT22;10909;53.590;10.054;2023-01-28T02:39:58;6.20;67.80
21495;DHT22;10909;53.590;10.054;2023-01-28T02:42:34;6.10;67.80
21495;DHT22;10909;53.590;10.054;2023-01-28T02:45:03;6.10;67.80
21495;DHT22;10909;53.590;10.054;2023-01-28T02:47:31;6.10;68.00
21495;DHT22;10909;53.590;10.054;2023-01-28T02:50:17;6.10;68.20
21495;DHT22;10909;53.590;10.054;2023-01-28T02:53:06;6.10;68.20
21495;DHT22;10909;53.590;10.054;2023-01-28T02:56:17;6.10;68.00
21495;DHT22;10909;53.590;10.054;2023-01-28T02:59:10;6.10;67.80
21495;DHT22;10909;53.590;10.054;2023-01-28T03:05:04;6.10;67.90
21495;DHT22;10909;53.590;10.054;2023-01-28T03:07:34;6.10;68.40
21495;DHT22;10909;53.590;10.054;2023-01-28T03:10:08;6.10;68.40
21495;DHT22;10909;53.590;10.054;2023-01-28T03:12:42;6.10;68.50
21495;DHT22;10909;53.590;10.054;2023-01-28T03:15:32;6.10;68.30
21495;DHT22;10909;53.590;10.054;2023-01-28T03:18:27;6.10;68.20
21495;DHT22;10909;53.590;10.054;2023-01-28T03:21:24;6.10;68.00
21495;DHT22;10909;53.590;10.054;2023-01-28T03:24:32;6.10;67.90
21495;DHT22;10909;53.590;10.054;2023-01-28T03:30:12;6.10;67.60
21495;DHT22;10909;53.590;10.054;2023-01-28T03:32:57;6.00;67.60
21495;DHT22;10909;53.590;10.054;2023-01-28T03:35:42;6.10;67.90
21495;DHT22;10909;53.590;10.054;2023-01-28T03:38:27;6.00;68.00
21495;DHT22;10909;53.590;10.054;2023-01-28T03:41:10;6.00;68.00
21495;DHT22;10909;53.590;10.054;2023-01-28T03:43:36;6.00;68.00
21495;DHT22;10909;53.590;10.054;2023-01-28T03:46:02;6.00;68.10
21495;DHT22;10909;53.590;10.054;2023-01-28T03:48:31;6.10;68.20
21495;DHT22;10909;53.590;10.054;2023-01-28T03:50:57;6.10;68.20
21495;DHT22;10909;53.590;10.054;2023-01-28T03:53:26;6.10;68.30
21495;DHT22;10909;53.590;10.054;2023-01-28T03:55:53;6.10;68.10
21495;DHT22;10909;53.590;10.054;2023-01-28T03:58:21;6.10;68.20
21495;DHT22;10909;53.590;10.054;2023-01-28T04:00:52;6.10;68.30
21495;DHT22;10909;53.590;10.054;2023-01-28T04:03:19;6.10;67.90
21495;DHT22;10909;53.590;10.054;2023-01-28T04:05:57;6.10;68.00
21495;DHT22;10909;53.590;10.054;2023-01-28T04:08:23;6.00;67.50
21495;DHT22;10909;53.590;10.054;2023-01-28T04:10:49;6.00;67.90
21495;DHT22;10909;53.590;10.054;2023-01-28T04:13:15;6.00;67.90
21495;DHT22;10909;53.590;10.054;2023-01-28T04:15:42;6.00;68.10
21495;DHT22;10909;53.590;10.054;2023-01-28T04:18:08;6.00;67.90
21495;DHT22;10909;53.590;10.054;2023-01-28T04:20:34;6.00;67.90
21495;DHT22;10909;53.590;10.054;2023-01-28T04:23:00;5.90;67.80
21495;DHT22;10909;53.590;10.054;2023-01-28T04:25:27;5.90;68.10
21495;DHT22;10909;53.590;10.054;2023-01-28T04:27:52;5.90;68.10
21495;DHT22;10909;53.590;10.054;2023-01-28T04:30:18;5.90;67.90
21495;DHT22;10909;53.590;10.054;2023-01-28T04:32:50;5.80;68.70
21495;DHT22;10909;53.590;10.054;2023-01-28T04:35:18;5.80;67.90
21495;DHT22;10909;53.590;10.054;2023-01-28T04:37:44;5.80;68.20
21495;DHT22;10909;53.590;10.054;2023-01-28T04:40:11;5.80;68.20
21495;DHT22;10909;53.590;10.054;2023-01-28T04:42:41;5.80;68.20
21495;DHT22;10909;53.590;10.054;2023-01-28T04:45:09;5.70;68.20
21495;DHT22;10909;53.590;10.054;2023-01-28T04:47:35;5.80;68.40
21495;DHT22;10909;53.590;10.054;2023-01-28T04:50:01;5.70;68.30
21495;DHT22;10909;53.590;10.054;2023-01-28T04:52:27;5.70;68.30
21495;DHT22;10909;53.590;10.054;2023-01-28T04:54:53;5.70;68.50
21495;DHT22;10909;53.590;10.054;2023-01-28T04:57:19;5.60;68.50
21495;DHT22;10909;53.590;10.054;2023-01-28T04:59:45;5.60;68.70
21495;DHT22;10909;53.590;10.054;2023-01-28T05:02:10;5.60;68.60
21495;DHT22;10909;53.590;10.054;2023-01-28T05:04:36;5.60;68.90
21495;DHT22;10909;53.590;10.054;2023-01-28T05:07:01;5.60;68.90
21495;DHT22;10909;53.590;10.054;2023-01-28T05:09:27;5.50;68.80
21495;DHT22;10909;53.590;10.054;2023-01-28T05:11:53;5.50;68.90
21495;DHT22;10909;53.590;10.054;2023-01-28T05:14:20;5.50;69.10
21495;DHT22;10909;53.590;10.054;2023-01-28T05:16:46;5.50;69.10
21495;DHT22;10909;53.590;10.054;2023-01-28T05:19:12;5.50;68.90
21495;DHT22;10909;53.590;10.054;2023-01-28T05:21:38;5.50;68.80
21495;DHT22;10909;53.590;10.054;2023-01-28T05:24:04;5.40;68.80
21495;DHT22;10909;53.590;10.054;2023-01-28T05:26:30;5.40;68.70
21495;DHT22;10909;53.590;10.054;2023-01-28T05:28:56;5.40;68.60
21495;DHT22;10909;53.590;10.054;2023-01-28T05:31:21;5.30;68.60
21495;DHT22;10909;53.590;10.054;2023-01-28T05:33:47;5.30;68.60
21495;DHT22;10909;53.590;10.054;2023-01-28T05:36:13;5.20;68.50
21495;DHT22;10909;53.590;10.054;2023-01-28T05:38:38;5.20;68.50
21495;DHT22;10909;53.590;10.054;2023-01-28T05:41:04;5.10;68.60
21495;DHT22;10909;53.590;10.054;2023-01-28T05:43:30;5.10;68.80
21495;DHT22;10909;53.590;10.054;2023-01-28T05:45:56;5.00;68.70
21495;DHT22;10909;53.590;10.054;2023-01-28T05:48:22;5.00;68.90
21495;DHT22;10909;53.590;10.054;2023-01-28T05:50:51;4.90;68.80
21495;DHT22;10909;53.590;10.054;2023-01-28T05:53:17;4.90;68.80
21495;DHT22;10909;53.590;10.054;2023-01-28T05:55:46;4.80;68.80
21495;DHT22;10909;53.590;10.054;2023-01-28T05:58:11;4.80;69.00
21495;DHT22;10909;53.590;10.054;2023-01-28T06:00:37;4.80;69.10
21495;DHT22;10909;53.590;10.054;2023-01-28T06:03:06;4.70;69.10
21495;DHT22;10909;53.590;10.054;2023-01-28T06:05:32;4.70;69.20
21495;DHT22;10909;53.590;10.054;2023-01-28T06:07:57;4.60;70.00
21495;DHT22;10909;53.590;10.054;2023-01-28T06:10:23;4.60;69.40
21495;DHT22;10909;53.590;10.054;2023-01-28T06:12:49;4.60;69.40
21495;DHT22;10909;53.590;10.054;2023-01-28T06:15:14;4.60;69.50
21495;DHT22;10909;53.590;10.054;2023-01-28T06:17:40;4.60;69.50
21495;DHT22;10909;53.590;10.054;2023-01-28T06:20:09;4.50;69.60
21495;DHT22;10909;53.590;10.054;2023-01-28T06:22:35;4.50;69.70
21495;DHT22;10909;53.590;10.054;2023-01-28T06:25:02;4.50;69.80
21495;DHT22;10909;53.590;10.054;2023-01-28T06:27:28;4.50;69.90
21495;DHT22;10909;53.590;10.054;2023-01-28T06:29:54;4.50;70.00
21495;DHT22;10909;53.590;10.054;2023-01-28T06:32:19;4.50;70.10
21495;DHT22;10909;53.590;10.054;2023-01-28T06:34:45;4.50;70.10
21495;DHT22;10909;53.590;10.054;2023-01-28T06:37:12;4.50;70.10
21495;DHT22;10909;53.590;10.054;2023-01-28T06:39:38;4.50;70.10
21495;DHT22;10909;53.590;10.054;2023-01-28T06:42:04;4.50;70.20
21495;DHT22;10909;53.590;10.054;2023-01-28T06:44:30;4.50;70.20
21495;DHT22;10909;53.590;10.054;2023-01-28T06:46:55;4.50;70.20
21495;DHT22;10909;53.590;10.054;2023-01-28T06:49:21;4.40;70.20
21495;DHT22;10909;53.590;10.054;2023-01-28T06:51:47;4.40;70.20
21495;DHT22;10909;53.590;10.054;2023-01-28T06:54:13;4.40;70.30
21495;DHT22;10909;53.590;10.054;2023-01-28T06:56:38;4.40;70.30
21495;DHT22;10909;53.590;10.054;2023-01-28T06:59:04;4.40;70.30
21495;DHT22;10909;53.590;10.054;2023-01-28T07:01:30;4.40;70.30
21495;DHT22;10909;53.590;10.054;2023-01-28T07:03:56;4.40;70.30
21495;DHT22;10909;53.590;10.054;2023-01-28T07:06:21;4.30;70.30
21495;DHT22;10909;53.590;10.054;2023-01-28T07:08:47;4.30;70.30
21495;DHT22;10909;53.590;10.054;2023-01-28T07:11:14;4.30;70.40
21495;DHT22;10909;53.590;10.054;2023-01-28T07:13:40;4.30;70.50
21495;DHT22;10909;53.590;10.054;2023-01-28T07:16:06;4.30;70.60
21495;DHT22;10909;53.590;10.054;2023-01-28T07:18:32;4.30;70.60
21495;DHT22;10909;53.590;10.054;2023-01-28T07:20:58;4.20;70.40
21495;DHT22;10909;53.590;10.054;2023-01-28T07:23:24;4.20;70.20
21495;DHT22;10909;53.590;10.054;2023-01-28T07:25:50;4.20;70.10
21495;DHT22;10909;53.590;10.054;2023-01-28T07:28:16;4.20;70.20
21495;DHT22;10909;53.590;10.054;2023-01-28T07:30:49;4.10;70.20
21495;DHT22;10909;53.590;10.054;2023-01-28T07:33:16;4.10;70.30
21495;DHT22;10909;53.590;10.054;2023-01-28T07:35:42;4.00;70.20
21495;DHT22;10909;53.590;10.054;2023-01-28T07:38:08;4.00;70.30
21495;DHT22;10909;53.590;10.054;2023-01-28T07:40:34;4.00;70.40
21495;DHT22;10909;53.590;10.054;2023-01-28T07:43:00;3.90;70.50
21495;DHT22;10909;53.590;10.054;2023-01-28T07:45:27;3.90;70.50
21495;DHT22;10909;53.590;10.054;2023-01-28T07:48:02;3.90;70.60
21495;DHT22;10909;53.590;10.054;2023-01-28T07:50:29;3.80;70.50
21495;DHT22;10909;53.590;10.054;2023-01-28T07:52:56;3.80;70.70
21495;DHT22;10909;53.590;10.054;2023-01-28T07:55:22;3.80;70.80
21495;DHT22;10909;53.590;10.054;2023-01-28T07:57:56;3.70;71.60
21495;DHT22;10909;53.590;10.054;2023-01-28T08:00:23;3.70;70.90
21495;DHT22;10909;53.590;10.054;2023-01-28T08:02:54;3.70;70.90
21495;DHT22;10909;53.590;10.054;2023-01-28T08:05:20;3.70;71.10
21495;DHT22;10909;53.590;10.054;2023-01-28T08:07:47;3.70;71.20
21495;DHT22;10909;53.590;10.054;2023-01-28T08:10:16;3.70;71.30
21495;DHT22;10909;53.590;10.054;2023-01-28T08:12:53;3.70;71.50
21495;DHT22;10909;53.590;10.054;2023-01-28T08:15:19;3.70;71.40
21495;DHT22;10909;53.590;10.054;2023-01-28T08:17:45;3.60;71.40
21495;DHT22;10909;53.590;10.054;2023-01-28T08:20:11;3.60;71.30
21495;DHT22;10909;53.590;10.054;2023-01-28T08:22:36;3.60;71.40
21495;DHT22;10909;53.590;10.054;2023-01-28T08:25:02;3.60;71.40
21495;DHT22;10909;53.590;10.054;2023-01-28T08:27:28;3.60;71.50
21495;DHT22;10909;53.590;10.054;2023-01-28T08:29:53;3.60;71.80
21495;DHT22;10909;53.590;10.054;2023-01-28T08:32:19;3.60;72.70
21495;DHT22;10909;53.590;10.054;2023-01-28T08:34:45;3.60;72.00
21495;DHT22;10909;53.590;10.054;2023-01-28T08:37:10;3.60;72.10
21495;DHT22;10909;53.590;10.054;2023-01-28T08:39:36;3.60;72.20
21495;DHT22;10909;53.590;10.054;2023-01-28T08:42:02;3.60;72.00
21495;DHT22;10909;53.590;10.054;2023-01-28T08:44:32;3.60;72.10
21495;DHT22;10909;53.590;10.054;2023-01-28T08:46:57;3.60;72.90
21495;DHT22;10909;53.590;10.054;2023-01-28T08:49:25;3.60;72.30
21495;DHT22;10909;53.590;10.054;2023-01-28T08:51:50;3.60;72.20
21495;DHT22;10909;53.590;10.054;2023-01-28T08:54:16;3.60;72.30
21495;DHT22;10909;53.590;10.054;2023-01-28T08:56:43;3.70;72.40
21495;DHT22;10909;53.590;10.054;2023-01-28T08:59:11;3.70;72.50
21495;DHT22;10909;53.590;10.054;2023-01-28T09:01:36;3.70;72.40
21495;DHT22;10909;53.590;10.054;2023-01-28T09:04:02;3.70;72.20
21495;DHT22;10909;53.590;10.054;2023-01-28T09:06:28;3.80;71.90
21495;DHT22;10909;53.590;10.054;2023-01-28T09:08:58;3.70;72.10
21495;DHT22;10909;53.590;10.054;2023-01-28T09:11:24;3.80;72.30
21495;DHT22;10909;53.590;10.054;2023-01-28T09:13:50;3.80;72.30
21495;DHT22;10909;53.590;10.054;2023-01-28T09:16:16;3.80;72.50
21495;DHT22;10909;53.590;10.054;2023-01-28T09:18:42;3.90;72.70
21495;DHT22;10909;53.590;10.054;2023-01-28T09:21:08;4.00;72.80
21495;DHT22;10909;53.590;10.054;2023-01-28T09:23:37;4.00;72.90
21495;DHT22;10909;53.590;10.054;2023-01-28T09:26:04;4.10;73.00
21495;DHT22;10909;53.590;10.054;2023-01-28T09:28:30;4.20;72.60
21495;DHT22;10909;53.590;10.054;2023-01-28T09:31:04;4.20;72.50
21495;DHT22;10909;53.590;10.054;2023-01-28T09:33:30;4.30;72.50
21495;DHT22;10909;53.590;10.054;2023-01-28T09:35:59;4.40;73.10
21495;DHT22;10909;53.590;10.054;2023-01-28T09:38:25;4.40;72.30
21495;DHT22;10909;53.590;10.054;2023-01-28T09:40:51;4.40;72.00
21495;DHT22;10909;53.590;10.054;2023-01-28T09:43:48;4.50;72.00
21495;DHT22;10909;53.590;10.054;2023-01-28T09:46:16;4.50;71.80
21495;DHT22;10909;53.590;10.054;2023-01-28T09:48:49;4.50;71.70
21495;DHT22;10909;53.590;10.054;2023-01-28T09:51:39;4.60;71.10
21495;DHT22;10909;53.590;10.054;2023-01-28T09:54:21;4.60;70.40
21495;DHT22;10909;53.590;10.054;2023-01-28T09:56:52;4.60;70.80
21495;DHT22;10909;53.590;10.054;2023-01-28T09:59:21;4.60;70.80
21495;DHT22;10909;53.590;10.054;2023-01-28T10:01:53;4.60;70.50
21495;DHT22;10909;53.590;10.054;2023-01-28T10:04:52;4.60;70.40
21495;DHT22;10909;53.590;10.054;2023-01-28T10:07:35;4.60;70.60
21495;DHT22;10909;53.590;10.054;2023-01-28T10:15:53;4.70;71.10
21495;DHT22;10909;53.590;10.054;2023-01-28T10:18:34;4.80;71.00
21495;DHT22;10909;53.590;10.054;2023-01-28T10:21:15;4.90;71.20
21495;DHT22;10909;53.590;10.054;2023-01-28T10:24:05;5.00;71.30
21495;DHT22;10909;53.590;10.054;2023-01-28T10:26:36;5.10;71.30
21495;DHT22;10909;53.590;10.054;2023-01-28T10:29:19;5.20;71.50
21495;DHT22;10909;53.590;10.054;2023-01-28T10:31:54;5.30;71.60
21495;DHT22;10909;53.590;10.054;2023-01-28T10:34:23;5.40;71.20
21495;DHT22;10909;53.590;10.054;2023-01-28T10:36:49;5.50;71.70
21495;DHT22;10909;53.590;10.054;2023-01-28T10:39:17;5.60;71.20
21495;DHT22;10909;53.590;10.054;2023-01-28T10:41:44;5.70;70.80
21495;DHT22;10909;53.590;10.054;2023-01-28T10:44:20;5.80;70.70
21495;DHT22;10909;53.590;10.054;2023-01-28T10:46:51;5.80;70.50
21495;DHT22;10909;53.590;10.054;2023-01-28T10:49:23;5.90;70.20
21495;DHT22;10909;53.590;10.054;2023-01-28T10:51:50;5.90;69.40
21495;DHT22;10909;53.590;10.054;2023-01-28T10:54:26;5.90;69.80
21495;DHT22;10909;53.590;10.054;2023-01-28T10:56:54;5.90;69.80
21495;DHT22;10909;53.590;10.054;2023-01-28T10:59:32;5.90;69.80
21495;DHT22;10909;53.590;10.054;2023-01-28T11:02:25;5.90;69.30
21495;DHT22;10909;53.590;10.054;2023-01-28T11:05:05;5.90;69.20
21495;DHT22;10909;53.590;10.054;2023-01-28T11:07:33;5.90;68.90
21495;DHT22;10909;53.590;10.054;2023-01-28T11:09:58;5.90;68.80
21495;DHT22;10909;53.590;10.054;2023-01-28T11:12:27;5.90;68.50
21495;DHT22;10909;53.590;10.054;2023-01-28T11:15:02;5.90;69.30
21495;DHT22;10909;53.590;10.054;2023-01-28T11:17:34;5.90;69.20
21495;DHT22;10909;53.590;10.054;2023-01-28T11:20:17;5.90;69.50
21495;DHT22;10909;53.590;10.054;2023-01-28T11:22:44;5.80;68.90
21495;DHT22;10909;53.590;10.054;2023-01-28T11:27:47;5.80;69.50
21495;DHT22;10909;53.590;10.054;2023-01-28T11:30:36;5.80;69.70
21495;DHT22;10909;53.590;10.054;2023-01-28T11:33:19;5.80;69.80
21495;DHT22;10909;53.590;10.054;2023-01-28T11:36:04;5.90;70.00
21495;DHT22;10909;53.590;10.054;2023-01-28T11:38:30;6.00;70.20
21495;DHT22;10909;53.590;10.054;2023-01-28T11:40:57;6.00;70.30
21495;DHT22;10909;53.590;10.054;2023-01-28T11:43:25;6.10;70.00
21495;DHT22;10909;53.590;10.054;2023-01-28T11:51:58;6.10;69.80
21495;DHT22;10909;53.590;10.054;2023-01-28T11:54:56;6.30;69.10
21495;DHT22;10909;53.590;10.054;2023-01-28T11:57:39;6.30;69.10
21495;DHT22;10909;53.590;10.054;2023-01-28T12:00:24;6.30;69.50
21495;DHT22;10909;53.590;10.054;2023-01-28T12:02:52;6.20;68.90
21495;DHT22;10909;53.590;10.054;2023-01-28T12:10:52;6.20;68.90
21495;DHT22;10909;53.590;10.054;2023-01-28T12:13:57;6.20;68.90
21495;DHT22;10909;53.590;10.054;2023-01-28T12:41:55;6.80;69.00
21495;DHT22;10909;53.590;10.054;2023-01-28T12:44:34;6.90;69.20
21495;DHT22;10909;53.590;10.054;2023-01-28T12:47:09;6.90;69.10
21495;DHT22;10909;53.590;10.054;2023-01-28T12:49:52;6.90;69.20
21495;DHT22;10909;53.590;10.054;2023-01-28T12:52:33;7.00;69.70
21495;DHT22;10909;53.590;10.054;2023-01-28T12:55:15;7.10;68.80
21495;DHT22;10909;53.590;10.054;2023-01-28T12:57:43;7.10;68.80
21495;DHT22;10909;53.590;10.054;2023-01-28T13:06:06;7.10;67.90
21495;DHT22;10909;53.590;10.054;2023-01-28T13:08:33;7.10;68.00
21495;DHT22;10909;53.590;10.054;2023-01-28T13:11:01;7.10;68.20
21495;DHT22;10909;53.590;10.054;2023-01-28T13:13:35;7.10;68.40
21495;DHT22;10909;53.590;10.054;2023-01-28T13:16:03;7.20;68.80
21495;DHT22;10909;53.590;10.054;2023-01-28T13:21:02;7.20;68.60
21495;DHT22;10909;53.590;10.054;2023-01-28T13:26:45;7.20;68.60
21495;DHT22;10909;53.590;10.054;2023-01-28T13:29:18;7.20;68.50
21495;DHT22;10909;53.590;10.054;2023-01-28T13:31:49;7.30;69.20
21495;DHT22;10909;53.590;10.054;2023-01-28T13:34:40;7.40;70.50
21495;DHT22;10909;53.590;10.054;2023-01-28T13:37:30;7.70;71.40
21495;DHT22;10909;53.590;10.054;2023-01-28T13:42:37;8.50;71.90
21495;DHT22;10909;53.590;10.054;2023-01-28T13:45:32;8.80;73.00
21495;DHT22;10909;53.590;10.054;2023-01-28T13:48:25;9.30;71.40
21495;DHT22;10909;53.590;10.054;2023-01-28T13:50:54;9.60;71.00
21495;DHT22;10909;53.590;10.054;2023-01-28T13:53:39;9.90;70.40
21495;DHT22;10909;53.590;10.054;2023-01-28T13:56:21;10.10;69.80
21495;DHT22;10909;53.590;10.054;2023-01-28T13:59:09;10.00;67.00
21495;DHT22;10909;53.590;10.054;2023-01-28T14:07:39;9.40;64.20
21495;DHT22;10909;53.590;10.054;2023-01-28T14:15:47;8.70;65.10
21495;DHT22;10909;53.590;10.054;2023-01-28T14:18:33;8.60;64.90
21495;DHT22;10909;53.590;10.054;2023-01-28T14:21:02;8.40;64.80
21495;DHT22;10909;53.590;10.054;2023-01-28T14:23:29;8.20;65.10
21495;DHT22;10909;53.590;10.054;2023-01-28T14:28:44;7.90;65.60
21495;DHT22;10909;53.590;10.054;2023-01-28T14:31:49;7.80;65.90
21495;DHT22;10909;53.590;10.054;2023-01-28T14:34:28;7.70;66.30
21495;DHT22;10909;53.590;10.054;2023-01-28T14:37:05;7.60;66.40
21495;DHT22;10909;53.590;10.054;2023-01-28T14:39:56;7.50;66.50
21495;DHT22;10909;53.590;10.054;2023-01-28T14:42:24;7.40;66.50
21495;DHT22;10909;53.590;10.054;2023-01-28T14:45:27;7.30;66.70
21495;DHT22;10909;53.590;10.054;2023-01-28T14:53:23;7.10;66.50
21495;DHT22;10909;53.590;10.054;2023-01-28T14:59:02;7.00;67.20
21495;DHT22;10909;53.590;10.054;2023-01-28T15:01:30;7.00;67.20
21495;DHT22;10909;53.590;10.054;2023-01-28T15:03:57;6.90;67.70
21495;DHT22;10909;53.590;10.054;2023-01-28T15:06:28;6.90;67.80
21495;DHT22;10909;53.590;10.054;2023-01-28T15:09:08;6.90;67.70
21495;DHT22;10909;53.590;10.054;2023-01-28T15:11:37;6.90;67.60
21495;DHT22;10909;53.590;10.054;2023-01-28T15:14:07;6.90;67.60
21495;DHT22;10909;53.590;10.054;2023-01-28T15:16:37;6.90;67.90
21495;DHT22;10909;53.590;10.054;2023-01-28T15:19:06;6.80;67.90
21495;DHT22;10909;53.590;10.054;2023-01-28T15:21:33;6.80;68.00
21495;DHT22;10909;53.590;10.054;2023-01-28T15:24:01;6.80;68.00
21495;DHT22;10909;53.590;10.054;2023-01-28T15:26:30;6.80;68.30
21495;DHT22;10909;53.590;10.054;2023-01-28T15:28:57;6.80;68.20
21495;DHT22;10909;53.590;10.054;2023-01-28T15:33:59;6.80;68.40
21495;DHT22;10909;53.590;10.054;2023-01-28T15:36:27;6.80;68.50
21495;DHT22;10909;53.590;10.054;2023-01-28T15:38:54;6.80;68.20
21495;DHT22;10909;53.590;10.054;2023-01-28T15:41:31;6.80;68.40
21495;DHT22;10909;53.590;10.054;2023-01-28T15:44:01;6.80;68.40
21495;DHT22;10909;53.590;10.054;2023-01-28T15:46:28;6.70;68.40
21495;DHT22;10909;53.590;10.054;2023-01-28T15:48:59;6.70;68.50
21495;DHT22;10909;53.590;10.054;2023-01-28T15:51:31;6.70;68.60
21495;DHT22;10909;53.590;10.054;2023-01-28T15:54:04;6.70;68.60
21495;DHT22;10909;53.590;10.054;2023-01-28T15:56:31;6.70;68.80
21495;DHT22;10909;53.590;10.054;2023-01-28T15:59:20;6.70;68.70
21495;DHT22;10909;53.590;10.054;2023-01-28T16:01:48;6.70;68.90
21495;DHT22;10909;53.590;10.054;2023-01-28T16:04:25;6.70;68.90
21495;DHT22;10909;53.590;10.054;2023-01-28T16:06:52;6.60;68.90
21495;DHT22;10909;53.590;10.054;2023-01-28T16:09:28;6.70;68.90
21495;DHT22;10909;53.590;10.054;2023-01-28T16:12:06;6.60;69.00
21495;DHT22;10909;53.590;10.054;2023-01-28T16:14:41;6.60;69.00
21495;DHT22;10909;53.590;10.054;2023-01-28T16:17:09;6.50;68.90
21495;DHT22;10909;53.590;10.054;2023-01-28T16:19:41;6.50;68.80
21495;DHT22;10909;53.590;10.054;2023-01-28T16:22:19;6.60;70.00
21495;DHT22;10909;53.590;10.054;2023-01-28T16:24:51;6.50;69.20
21495;DHT22;10909;53.590;10.054;2023-01-28T16:27:25;6.50;69.50
21495;DHT22;10909;53.590;10.054;2023-01-28T16:29:51;6.50;69.40
21495;DHT22;10909;53.590;10.054;2023-01-28T16:32:34;6.50;69.50
21495;DHT22;10909;53.590;10.054;2023-01-28T16:35:01;6.50;69.50
21495;DHT22;10909;53.590;10.054;2023-01-28T16:37:28;6.50;69.50
21495;DHT22;10909;53.590;10.054;2023-01-28T16:39:54;6.40;69.60
21495;DHT22;10909;53.590;10.054;2023-01-28T16:42:19;6.40;69.80
21495;DHT22;10909;53.590;10.054;2023-01-28T16:45:02;6.40;69.90
21495;DHT22;10909;53.590;10.054;2023-01-28T16:47:28;6.40;69.80
21495;DHT22;10909;53.590;10.054;2023-01-28T16:49:54;6.40;69.80
21495;DHT22;10909;53.590;10.054;2023-01-28T16:52:23;6.30;69.80
21495;DHT22;10909;53.590;10.054;2023-01-28T16:54:50;6.30;70.00
21495;DHT22;10909;53.590;10.054;2023-01-28T16:57:19;6.30;70.10
21495;DHT22;10909;53.590;10.054;2023-01-28T16:59:46;6.30;70.40
21495;DHT22;10909;53.590;10.054;2023-01-28T17:02:13;6.30;70.40
21495;DHT22;10909;53.590;10.054;2023-01-28T17:04:39;6.30;70.70
21495;DHT22;10909;53.590;10.054;2023-01-28T17:07:07;6.30;70.80
21495;DHT22;10909;53.590;10.054;2023-01-28T17:09:33;6.30;70.80
21495;DHT22;10909;53.590;10.054;2023-01-28T17:12:00;6.30;70.90
21495;DHT22;10909;53.590;10.054;2023-01-28T17:14:27;6.30;71.00
21495;DHT22;10909;53.590;10.054;2023-01-28T17:16:53;6.20;70.90
21495;DHT22;10909;53.590;10.054;2023-01-28T17:19:19;6.30;70.90
21495;DHT22;10909;53.590;10.054;2023-01-28T17:21:44;6.20;71.00
21495;DHT22;10909;53.590;10.054;2023-01-28T17:24:10;6.20;71.10
21495;DHT22;10909;53.590;10.054;2023-01-28T17:26:36;6.20;71.10
21495;DHT22;10909;53.590;10.054;2023-01-28T17:29:06;6.20;72.10
21495;DHT22;10909;53.590;10.054;2023-01-28T17:31:33;6.20;71.50
21495;DHT22;10909;53.590;10.054;2023-01-28T17:33:59;6.10;71.40
21495;DHT22;10909;53.590;10.054;2023-01-28T17:36:26;6.10;71.50